CPX257 Details

Departure: Grantley Adams International Airport (TBPB)
Arrival: Miami International Airport (KMIA)
Route: BGI UA555 ILURI MEEGL Y421 HAGIT Y308 FOWEE FLIPR6


Current Weather Information
TBPB 251100Z 11012KT 9999 SCT020 28/23 Q1013 NOSIG
KMIA 251053Z VRB04KT 10SM SCT030 25/18 A3004 RMK AO2 SLP174 T02500178 $